sensor_id;sensor_type;location;lat;lon;timestamp;P1;durP1;ratioP1;P2;durP2;ratioP2
67063;SDS011;58476;48.072;11.970;2022-12-10T00:00:35;7.30;;;3.88;;
67063;SDS011;58476;48.072;11.970;2022-12-10T00:03:01;7.18;;;3.85;;
67063;SDS011;58476;48.072;11.970;2022-12-10T00:05:26;8.60;;;3.97;;
67063;SDS011;58476;48.072;11.970;2022-12-10T00:07:52;8.95;;;3.97;;
67063;SDS011;58476;48.072;11.970;2022-12-10T00:10:17;9.02;;;3.70;;
67063;SDS011;58476;48.072;11.970;2022-12-10T00:12:42;9.38;;;4.10;;
67063;SDS011;58476;48.072;11.970;2022-12-10T00:15:08;11.10;;;4.10;;
67063;SDS011;58476;48.072;11.970;2022-12-10T00:17:33;9.15;;;3.95;;
67063;SDS011;58476;48.072;11.970;2022-12-10T00:19:59;9.48;;;4.07;;
67063;SDS011;58476;48.072;11.970;2022-12-10T00:22:24;11.02;;;4.32;;
67063;SDS011;58476;48.072;11.970;2022-12-10T00:24:49;8.90;;;4.45;;
67063;SDS011;58476;48.072;11.970;2022-12-10T00:27:15;9.38;;;3.75;;
67063;SDS011;58476;48.072;11.970;2022-12-10T00:29:40;10.10;;;4.22;;
67063;SDS011;58476;48.072;11.970;2022-12-10T00:32:05;7.82;;;4.15;;
67063;SDS011;58476;48.072;11.970;2022-12-10T00:34:31;11.00;;;4.53;;
67063;SDS011;58476;48.072;11.970;2022-12-10T00:36:56;10.57;;;3.97;;
67063;SDS011;58476;48.072;11.970;2022-12-10T00:39:22;8.43;;;4.30;;
67063;SDS011;58476;48.072;11.970;2022-12-10T00:41:47;8.93;;;4.10;;
67063;SDS011;58476;48.072;11.970;2022-12-10T00:44:13;9.80;;;4.13;;
67063;SDS011;58476;48.072;11.970;2022-12-10T00:46:39;13.45;;;4.13;;
67063;SDS011;58476;48.072;11.970;2022-12-10T00:49:07;13.70;;;4.15;;
67063;SDS011;58476;48.072;11.970;2022-12-10T00:51:32;9.93;;;3.90;;
67063;SDS011;58476;48.072;11.970;2022-12-10T00:53:58;6.03;;;3.80;;
67063;SDS011;58476;48.072;11.970;2022-12-10T00:56:24;6.60;;;3.97;;
67063;SDS011;58476;48.072;11.970;2022-12-10T00:58:51;13.20;;;4.70;;
67063;SDS011;58476;48.072;11.970;2022-12-10T01:03:45;11.25;;;4.20;;
67063;SDS011;58476;48.072;11.970;2022-12-10T01:06:13;9.98;;;4.43;;
67063;SDS011;58476;48.072;11.970;2022-12-10T01:08:40;6.85;;;3.75;;
67063;SDS011;58476;48.072;11.970;2022-12-10T01:11:06;10.68;;;4.53;;
67063;SDS011;58476;48.072;11.970;2022-12-10T01:13:32;13.07;;;4.53;;
67063;SDS011;58476;48.072;11.970;2022-12-10T01:15:59;11.27;;;4.38;;
67063;SDS011;58476;48.072;11.970;2022-12-10T01:18:25;9.55;;;4.00;;
67063;SDS011;58476;48.072;11.970;2022-12-10T01:20:51;17.38;;;4.95;;
67063;SDS011;58476;48.072;11.970;2022-12-10T01:23:16;12.73;;;4.85;;
67063;SDS011;58476;48.072;11.970;2022-12-10T01:25:41;10.00;;;4.22;;
67063;SDS011;58476;48.072;11.970;2022-12-10T01:28:07;14.93;;;4.40;;
67063;SDS011;58476;48.072;11.970;2022-12-10T01:30:32;19.73;;;4.75;;
67063;SDS011;58476;48.072;11.970;2022-12-10T01:32:57;19.48;;;4.95;;
67063;SDS011;58476;48.072;11.970;2022-12-10T01:35:23;16.30;;;4.60;;
67063;SDS011;58476;48.072;11.970;2022-12-10T01:37:48;14.50;;;4.95;;
67063;SDS011;58476;48.072;11.970;2022-12-10T01:40:13;8.15;;;4.70;;
67063;SDS011;58476;48.072;11.970;2022-12-10T01:42:39;16.48;;;4.70;;
67063;SDS011;58476;48.072;11.970;2022-12-10T01:45:06;8.02;;;4.25;;
67063;SDS011;58476;48.072;11.970;2022-12-10T01:47:35;16.05;;;4.75;;
67063;SDS011;58476;48.072;11.970;2022-12-10T01:50:02;8.60;;;4.38;;
67063;SDS011;58476;48.072;11.970;2022-12-10T01:52:28;12.63;;;4.50;;
67063;SDS011;58476;48.072;11.970;2022-12-10T01:54:54;8.95;;;4.40;;
67063;SDS011;58476;48.072;11.970;2022-12-10T01:57:21;14.52;;;4.50;;
67063;SDS011;58476;48.072;11.970;2022-12-10T01:59:50;14.27;;;4.45;;
67063;SDS011;58476;48.072;11.970;2022-12-10T02:02:26;10.18;;;4.45;;
67063;SDS011;58476;48.072;11.970;2022-12-10T02:05:23;16.25;;;5.18;;
67063;SDS011;58476;48.072;11.970;2022-12-10T02:07:58;10.88;;;4.35;;
67063;SDS011;58476;48.072;11.970;2022-12-10T02:16:18;9.48;;;4.55;;
67063;SDS011;58476;48.072;11.970;2022-12-10T02:18:41;9.57;;;4.07;;
67063;SDS011;58476;48.072;11.970;2022-12-10T02:21:24;10.70;;;4.20;;
67063;SDS011;58476;48.072;11.970;2022-12-10T02:23:59;12.05;;;4.30;;
67063;SDS011;58476;48.072;11.970;2022-12-10T02:26:49;12.98;;;4.50;;
67063;SDS011;58476;48.072;11.970;2022-12-10T02:29:24;15.07;;;4.50;;
67063;SDS011;58476;48.072;11.970;2022-12-10T02:31:52;11.93;;;4.75;;
67063;SDS011;58476;48.072;11.970;2022-12-10T02:34:23;10.40;;;4.38;;
67063;SDS011;58476;48.072;11.970;2022-12-10T02:36:51;11.63;;;4.18;;
67063;SDS011;58476;48.072;11.970;2022-12-10T02:39:20;13.13;;;4.65;;
67063;SDS011;58476;48.072;11.970;2022-12-10T02:41:54;11.38;;;4.65;;
67063;SDS011;58476;48.072;11.970;2022-12-10T02:44:22;9.20;;;4.30;;
67063;SDS011;58476;48.072;11.970;2022-12-10T02:46:51;8.77;;;4.13;;
67063;SDS011;58476;48.072;11.970;2022-12-10T02:49:22;11.15;;;4.65;;
67063;SDS011;58476;48.072;11.970;2022-12-10T02:51:50;8.27;;;4.50;;
67063;SDS011;58476;48.072;11.970;2022-12-10T02:57:40;7.97;;;4.30;;
67063;SDS011;58476;48.072;11.970;2022-12-10T03:00:22;8.07;;;4.63;;
67063;SDS011;58476;48.072;11.970;2022-12-10T03:08:42;9.77;;;4.10;;
67063;SDS011;58476;48.072;11.970;2022-12-10T03:11:14;10.20;;;4.57;;
67063;SDS011;58476;48.072;11.970;2022-12-10T03:16:12;7.97;;;4.35;;
67063;SDS011;58476;48.072;11.970;2022-12-10T03:18:39;7.90;;;4.32;;
67063;SDS011;58476;48.072;11.970;2022-12-10T03:21:05;9.27;;;4.43;;
67063;SDS011;58476;48.072;11.970;2022-12-10T03:23:32;7.25;;;4.13;;
67063;SDS011;58476;48.072;11.970;2022-12-10T03:25:59;8.88;;;4.22;;
67063;SDS011;58476;48.072;11.970;2022-12-10T03:28:26;8.52;;;4.10;;
67063;SDS011;58476;48.072;11.970;2022-12-10T03:30:51;9.25;;;4.60;;
67063;SDS011;58476;48.072;11.970;2022-12-10T03:33:20;7.63;;;4.15;;
67063;SDS011;58476;48.072;11.970;2022-12-10T03:35:45;7.95;;;4.53;;
67063;SDS011;58476;48.072;11.970;2022-12-10T03:38:11;8.32;;;4.38;;
67063;SDS011;58476;48.072;11.970;2022-12-10T03:40:37;11.73;;;4.97;;
67063;SDS011;58476;48.072;11.970;2022-12-10T03:43:03;7.32;;;4.22;;
67063;SDS011;58476;48.072;11.970;2022-12-10T03:45:28;6.90;;;4.32;;
67063;SDS011;58476;48.072;11.970;2022-12-10T03:47:54;7.38;;;4.28;;
67063;SDS011;58476;48.072;11.970;2022-12-10T03:50:19;10.07;;;4.55;;
67063;SDS011;58476;48.072;11.970;2022-12-10T03:52:44;7.55;;;4.05;;
67063;SDS011;58476;48.072;11.970;2022-12-10T03:55:10;8.13;;;4.28;;
67063;SDS011;58476;48.072;11.970;2022-12-10T03:57:35;7.30;;;4.43;;
67063;SDS011;58476;48.072;11.970;2022-12-10T04:00:02;7.50;;;4.53;;
67063;SDS011;58476;48.072;11.970;2022-12-10T04:02:37;7.13;;;4.05;;
67063;SDS011;58476;48.072;11.970;2022-12-10T04:05:02;6.53;;;4.20;;
67063;SDS011;58476;48.072;11.970;2022-12-10T04:07:28;6.82;;;4.35;;
67063;SDS011;58476;48.072;11.970;2022-12-10T04:09:54;8.52;;;4.72;;
67063;SDS011;58476;48.072;11.970;2022-12-10T04:12:19;7.78;;;4.10;;
67063;SDS011;58476;48.072;11.970;2022-12-10T04:14:44;6.50;;;3.92;;
67063;SDS011;58476;48.072;11.970;2022-12-10T04:17:10;8.02;;;4.25;;
67063;SDS011;58476;48.072;11.970;2022-12-10T04:19:35;6.90;;;4.45;;
67063;SDS011;58476;48.072;11.970;2022-12-10T04:22:01;7.63;;;4.50;;
67063;SDS011;58476;48.072;11.970;2022-12-10T04:24:27;6.20;;;3.85;;
67063;SDS011;58476;48.072;11.970;2022-12-10T04:26:55;7.03;;;4.20;;
67063;SDS011;58476;48.072;11.970;2022-12-10T04:29:22;7.70;;;4.10;;
67063;SDS011;58476;48.072;11.970;2022-12-10T04:31:50;7.60;;;4.38;;
67063;SDS011;58476;48.072;11.970;2022-12-10T04:34:16;8.50;;;4.50;;
67063;SDS011;58476;48.072;11.970;2022-12-10T04:36:41;6.82;;;4.40;;
67063;SDS011;58476;48.072;11.970;2022-12-10T04:39:06;6.38;;;4.30;;
67063;SDS011;58476;48.072;11.970;2022-12-10T04:41:32;6.57;;;4.32;;
67063;SDS011;58476;48.072;11.970;2022-12-10T04:43:57;6.75;;;4.30;;
67063;SDS011;58476;48.072;11.970;2022-12-10T04:46:23;7.68;;;4.47;;
67063;SDS011;58476;48.072;11.970;2022-12-10T04:48:48;7.78;;;4.30;;
67063;SDS011;58476;48.072;11.970;2022-12-10T04:51:13;7.60;;;4.10;;
67063;SDS011;58476;48.072;11.970;2022-12-10T04:53:39;8.60;;;4.45;;
67063;SDS011;58476;48.072;11.970;2022-12-10T04:56:04;7.25;;;4.20;;
67063;SDS011;58476;48.072;11.970;2022-12-10T04:58:30;7.22;;;4.38;;
67063;SDS011;58476;48.072;11.970;2022-12-10T05:01:03;7.18;;;4.70;;
67063;SDS011;58476;48.072;11.970;2022-12-10T05:03:29;6.70;;;3.92;;
67063;SDS011;58476;48.072;11.970;2022-12-10T05:05:55;6.50;;;3.90;;
67063;SDS011;58476;48.072;11.970;2022-12-10T05:08:20;8.85;;;4.47;;
67063;SDS011;58476;48.072;11.970;2022-12-10T05:10:46;6.57;;;4.30;;
67063;SDS011;58476;48.072;11.970;2022-12-10T05:13:11;7.60;;;4.30;;
67063;SDS011;58476;48.072;11.970;2022-12-10T05:15:39;7.03;;;4.07;;
67063;SDS011;58476;48.072;11.970;2022-12-10T05:18:05;7.82;;;4.05;;
67063;SDS011;58476;48.072;11.970;2022-12-10T05:20:30;7.07;;;4.65;;
67063;SDS011;58476;48.072;11.970;2022-12-10T05:22:55;6.97;;;4.63;;
67063;SDS011;58476;48.072;11.970;2022-12-10T05:25:21;7.38;;;4.30;;
67063;SDS011;58476;48.072;11.970;2022-12-10T05:27:46;7.55;;;4.47;;
67063;SDS011;58476;48.072;11.970;2022-12-10T05:30:12;6.00;;;4.00;;
67063;SDS011;58476;48.072;11.970;2022-12-10T05:32:37;7.03;;;4.20;;
67063;SDS011;58476;48.072;11.970;2022-12-10T05:35:03;6.95;;;4.38;;
67063;SDS011;58476;48.072;11.970;2022-12-10T05:37:29;7.10;;;4.65;;
67063;SDS011;58476;48.072;11.970;2022-12-10T05:39:55;7.20;;;4.35;;
67063;SDS011;58476;48.072;11.970;2022-12-10T05:42:20;6.63;;;4.22;;
67063;SDS011;58476;48.072;11.970;2022-12-10T05:44:46;6.90;;;4.68;;
67063;SDS011;58476;48.072;11.970;2022-12-10T05:47:11;7.00;;;4.45;;
67063;SDS011;58476;48.072;11.970;2022-12-10T05:49:37;9.10;;;4.28;;
67063;SDS011;58476;48.072;11.970;2022-12-10T05:52:02;7.38;;;4.20;;
67063;SDS011;58476;48.072;11.970;2022-12-10T05:54:28;7.13;;;4.32;;
67063;SDS011;58476;48.072;11.970;2022-12-10T05:56:53;6.13;;;4.13;;
67063;SDS011;58476;48.072;11.970;2022-12-10T05:59:18;6.82;;;4.60;;
67063;SDS011;58476;48.072;11.970;2022-12-10T06:01:44;7.65;;;4.13;;
67063;SDS011;58476;48.072;11.970;2022-12-10T06:04:09;7.07;;;4.72;;
67063;SDS011;58476;48.072;11.970;2022-12-10T06:06:35;10.00;;;4.50;;
67063;SDS011;58476;48.072;11.970;2022-12-10T06:09:02;6.18;;;4.05;;
67063;SDS011;58476;48.072;11.970;2022-12-10T06:11:29;6.07;;;4.20;;
67063;SDS011;58476;48.072;11.970;2022-12-10T06:13:55;6.70;;;4.57;;
67063;SDS011;58476;48.072;11.970;2022-12-10T06:16:21;7.35;;;4.47;;
67063;SDS011;58476;48.072;11.970;2022-12-10T06:18:48;6.95;;;4.25;;
67063;SDS011;58476;48.072;11.970;2022-12-10T06:21:16;6.82;;;4.40;;
67063;SDS011;58476;48.072;11.970;2022-12-10T06:23:42;7.70;;;4.45;;
67063;SDS011;58476;48.072;11.970;2022-12-10T06:26:08;6.75;;;4.35;;
67063;SDS011;58476;48.072;11.970;2022-12-10T06:28:39;6.32;;;4.40;;
67063;SDS011;58476;48.072;11.970;2022-12-10T06:31:05;7.10;;;4.13;;
67063;SDS011;58476;48.072;11.970;2022-12-10T06:33:31;6.30;;;4.22;;
67063;SDS011;58476;48.072;11.970;2022-12-10T06:35:57;6.88;;;4.40;;
67063;SDS011;58476;48.072;11.970;2022-12-10T06:38:24;6.05;;;4.07;;
67063;SDS011;58476;48.072;11.970;2022-12-10T06:40:49;6.55;;;4.57;;
67063;SDS011;58476;48.072;11.970;2022-12-10T06:43:15;7.05;;;4.07;;
67063;SDS011;58476;48.072;11.970;2022-12-10T06:45:40;7.25;;;4.38;;
67063;SDS011;58476;48.072;11.970;2022-12-10T06:48:06;6.97;;;4.85;;
67063;SDS011;58476;48.072;11.970;2022-12-10T06:50:32;6.88;;;4.53;;
67063;SDS011;58476;48.072;11.970;2022-12-10T06:52:59;7.63;;;4.63;;
67063;SDS011;58476;48.072;11.970;2022-12-10T06:55:24;9.23;;;4.45;;
67063;SDS011;58476;48.072;11.970;2022-12-10T06:57:50;6.82;;;4.32;;
67063;SDS011;58476;48.072;11.970;2022-12-10T07:00:19;9.25;;;4.80;;
67063;SDS011;58476;48.072;11.970;2022-12-10T07:02:45;8.98;;;4.90;;
67063;SDS011;58476;48.072;11.970;2022-12-10T07:05:11;8.90;;;5.57;;
67063;SDS011;58476;48.072;11.970;2022-12-10T07:07:36;9.18;;;5.78;;
67063;SDS011;58476;48.072;11.970;2022-12-10T07:10:02;9.13;;;5.45;;
67063;SDS011;58476;48.072;11.970;2022-12-10T07:12:29;8.98;;;5.10;;
67063;SDS011;58476;48.072;11.970;2022-12-10T07:14:54;8.65;;;5.13;;
67063;SDS011;58476;48.072;11.970;2022-12-10T07:17:20;15.35;;;5.40;;
67063;SDS011;58476;48.072;11.970;2022-12-10T07:19:45;7.88;;;4.47;;
67063;SDS011;58476;48.072;11.970;2022-12-10T07:22:13;8.43;;;5.05;;
67063;SDS011;58476;48.072;11.970;2022-12-10T07:24:38;9.10;;;5.30;;
67063;SDS011;58476;48.072;11.970;2022-12-10T07:27:04;10.20;;;5.47;;
67063;SDS011;58476;48.072;11.970;2022-12-10T07:29:30;9.40;;;5.05;;
67063;SDS011;58476;48.072;11.970;2022-12-10T07:31:56;11.20;;;5.50;;
67063;SDS011;58476;48.072;11.970;2022-12-10T07:34:21;9.25;;;5.00;;
67063;SDS011;58476;48.072;11.970;2022-12-10T07:36:46;10.32;;;5.28;;
67063;SDS011;58476;48.072;11.970;2022-12-10T07:39:12;11.15;;;5.15;;
67063;SDS011;58476;48.072;11.970;2022-12-10T07:41:38;9.60;;;5.35;;
67063;SDS011;58476;48.072;11.970;2022-12-10T07:44:04;15.07;;;5.70;;
67063;SDS011;58476;48.072;11.970;2022-12-10T07:46:30;10.77;;;6.07;;
67063;SDS011;58476;48.072;11.970;2022-12-10T07:48:58;12.27;;;7.18;;
67063;SDS011;58476;48.072;11.970;2022-12-10T07:51:26;14.00;;;6.97;;
67063;SDS011;58476;48.072;11.970;2022-12-10T07:53:52;10.90;;;5.72;;
67063;SDS011;58476;48.072;11.970;2022-12-10T07:56:18;11.13;;;6.30;;
67063;SDS011;58476;48.072;11.970;2022-12-10T07:58:44;9.90;;;6.28;;
67063;SDS011;58476;48.072;11.970;2022-12-10T08:01:11;12.15;;;6.45;;
67063;SDS011;58476;48.072;11.970;2022-12-10T08:03:38;12.52;;;5.97;;
67063;SDS011;58476;48.072;11.970;2022-12-10T08:06:05;11.10;;;6.25;;
67063;SDS011;58476;48.072;11.970;2022-12-10T08:08:33;15.23;;;5.82;;
67063;SDS011;58476;48.072;11.970;2022-12-10T08:10:59;9.90;;;5.97;;
67063;SDS011;58476;48.072;11.970;2022-12-10T08:13:26;13.63;;;6.18;;
67063;SDS011;58476;48.072;11.970;2022-12-10T08:15:52;12.85;;;5.85;;
67063;SDS011;58476;48.072;11.970;2022-12-10T08:18:17;11.80;;;5.70;;
67063;SDS011;58476;48.072;11.970;2022-12-10T08:20:43;13.95;;;5.90;;
67063;SDS011;58476;48.072;11.970;2022-12-10T08:23:08;11.75;;;5.38;;
67063;SDS011;58476;48.072;11.970;2022-12-10T08:25:35;16.60;;;5.45;;
67063;SDS011;58476;48.072;11.970;2022-12-10T08:28:01;10.18;;;5.20;;
67063;SDS011;58476;48.072;11.970;2022-12-10T08:30:26;13.05;;;5.60;;
67063;SDS011;58476;48.072;11.970;2022-12-10T08:32:51;13.52;;;5.72;;
67063;SDS011;58476;48.072;11.970;2022-12-10T08:35:17;11.80;;;5.47;;
67063;SDS011;58476;48.072;11.970;2022-12-10T08:37:42;13.45;;;5.57;;
67063;SDS011;58476;48.072;11.970;2022-12-10T08:40:08;8.73;;;5.47;;
67063;SDS011;58476;48.072;11.970;2022-12-10T08:42:33;12.40;;;6.20;;
67063;SDS011;58476;48.072;11.970;2022-12-10T08:44:59;16.00;;;6.88;;
67063;SDS011;58476;48.072;11.970;2022-12-10T08:47:24;22.90;;;8.43;;
67063;SDS011;58476;48.072;11.970;2022-12-10T08:49:49;23.67;;;6.97;;
67063;SDS011;58476;48.072;11.970;2022-12-10T08:52:15;23.08;;;8.10;;
67063;SDS011;58476;48.072;11.970;2022-12-10T08:54:40;23.23;;;6.97;;
67063;SDS011;58476;48.072;11.970;2022-12-10T08:57:06;24.55;;;7.90;;
67063;SDS011;58476;48.072;11.970;2022-12-10T08:59:31;20.00;;;7.28;;
67063;SDS011;58476;48.072;11.970;2022-12-10T09:01:56;22.60;;;7.03;;
67063;SDS011;58476;48.072;11.970;2022-12-10T09:04:22;26.02;;;6.53;;
67063;SDS011;58476;48.072;11.970;2022-12-10T09:06:47;17.02;;;6.28;;
67063;SDS011;58476;48.072;11.970;2022-12-10T09:09:13;15.52;;;5.93;;
67063;SDS011;58476;48.072;11.970;2022-12-10T09:11:38;21.25;;;7.70;;
67063;SDS011;58476;48.072;11.970;2022-12-10T09:14:03;17.95;;;6.38;;
67063;SDS011;58476;48.072;11.970;2022-12-10T09:16:30;13.65;;;5.70;;
67063;SDS011;58476;48.072;11.970;2022-12-10T09:21:25;15.95;;;5.65;;
67063;SDS011;58476;48.072;11.970;2022-12-10T09:23:51;21.40;;;6.47;;
67063;SDS011;58476;48.072;11.970;2022-12-10T09:26:17;19.73;;;7.25;;
67063;SDS011;58476;48.072;11.970;2022-12-10T09:28:43;15.23;;;7.03;;
67063;SDS011;58476;48.072;11.970;2022-12-10T09:31:10;17.95;;;6.75;;
67063;SDS011;58476;48.072;11.970;2022-12-10T09:33:37;21.92;;;6.68;;
67063;SDS011;58476;48.072;11.970;2022-12-10T09:36:03;13.60;;;6.18;;
67063;SDS011;58476;48.072;11.970;2022-12-10T09:38:29;17.55;;;6.65;;
67063;SDS011;58476;48.072;11.970;2022-12-10T09:43:32;18.33;;;7.68;;
67063;SDS011;58476;48.072;11.970;2022-12-10T09:46:30;16.10;;;7.38;;
67063;SDS011;58476;48.072;11.970;2022-12-10T09:51:54;13.13;;;7.35;;
67063;SDS011;58476;48.072;11.970;2022-12-10T09:54:24;20.25;;;7.43;;
67063;SDS011;58476;48.072;11.970;2022-12-10T09:56:56;17.25;;;6.60;;
67063;SDS011;58476;48.072;11.970;2022-12-10T10:02:22;12.43;;;6.20;;
67063;SDS011;58476;48.072;11.970;2022-12-10T10:04:50;15.07;;;5.75;;
67063;SDS011;58476;48.072;11.970;2022-12-10T10:07:26;22.23;;;6.40;;
67063;SDS011;58476;48.072;11.970;2022-12-10T10:10:37;15.30;;;6.18;;
67063;SDS011;58476;48.072;11.970;2022-12-10T10:13:18;14.80;;;5.72;;
67063;SDS011;58476;48.072;11.970;2022-12-10T10:19:01;12.43;;;5.70;;
67063;SDS011;58476;48.072;11.970;2022-12-10T10:21:48;18.42;;;6.13;;
67063;SDS011;58476;48.072;11.970;2022-12-10T10:24:16;18.83;;;6.85;;
67063;SDS011;58476;48.072;11.970;2022-12-10T10:26:47;16.25;;;6.82;;
67063;SDS011;58476;48.072;11.970;2022-12-10T10:29:14;12.23;;;6.57;;
67063;SDS011;58476;48.072;11.970;2022-12-10T10:31:42;19.50;;;6.55;;
67063;SDS011;58476;48.072;11.970;2022-12-10T10:34:20;15.63;;;6.30;;
67063;SDS011;58476;48.072;11.970;2022-12-10T10:36:47;12.73;;;5.77;;
67063;SDS011;58476;48.072;11.970;2022-12-10T10:39:29;15.85;;;5.85;;
67063;SDS011;58476;48.072;11.970;2022-12-10T10:41:56;18.10;;;5.70;;
67063;SDS011;58476;48.072;11.970;2022-12-10T10:44:28;27.13;;;6.13;;
67063;SDS011;58476;48.072;11.970;2022-12-10T10:47:00;14.38;;;5.82;;
67063;SDS011;58476;48.072;11.970;2022-12-10T10:49:29;20.48;;;5.45;;
67063;SDS011;58476;48.072;11.970;2022-12-10T10:52:00;16.02;;;5.68;;
67063;SDS011;58476;48.072;11.970;2022-12-10T10:54:31;13.93;;;5.32;;
67063;SDS011;58476;48.072;11.970;2022-12-10T11:00:18;10.77;;;5.03;;
67063;SDS011;58476;48.072;11.970;2022-12-10T11:02:46;12.68;;;5.30;;
67063;SDS011;58476;48.072;11.970;2022-12-10T11:05:30;14.55;;;5.13;;
67063;SDS011;58476;48.072;11.970;2022-12-10T11:10:27;13.10;;;5.20;;
67063;SDS011;58476;48.072;11.970;2022-12-10T11:12:57;14.95;;;5.00;;
67063;SDS011;58476;48.072;11.970;2022-12-10T11:15:43;11.45;;;4.70;;
67063;SDS011;58476;48.072;11.970;2022-12-10T11:21:02;23.10;;;4.82;;
67063;SDS011;58476;48.072;11.970;2022-12-10T11:23:38;10.48;;;4.97;;
67063;SDS011;58476;48.072;11.970;2022-12-10T11:50:48;12.90;;;5.43;;
67063;SDS011;58476;48.072;11.970;2022-12-10T12:05:28;10.63;;;4.55;;
67063;SDS011;58476;48.072;11.970;2022-12-10T12:07:57;23.17;;;6.25;;
67063;SDS011;58476;48.072;11.970;2022-12-10T12:13:33;13.82;;;5.45;;
67063;SDS011;58476;48.072;11.970;2022-12-10T12:18:54;13.57;;;5.68;;
67063;SDS011;58476;48.072;11.970;2022-12-10T12:21:23;14.50;;;5.18;;
67063;SDS011;58476;48.072;11.970;2022-12-10T12:23:50;12.65;;;4.90;;
67063;SDS011;58476;48.072;11.970;2022-12-10T12:26:39;8.52;;;4.53;;
67063;SDS011;58476;48.072;11.970;2022-12-10T12:29:18;14.73;;;4.70;;
67063;SDS011;58476;48.072;11.970;2022-12-10T12:31:57;11.68;;;5.07;;
67063;SDS011;58476;48.072;11.970;2022-12-10T12:34:29;8.63;;;4.47;;
67063;SDS011;58476;48.072;11.970;2022-12-10T12:37:10;10.30;;;4.45;;
67063;SDS011;58476;48.072;11.970;2022-12-10T12:39:41;12.38;;;4.82;;
67063;SDS011;58476;48.072;11.970;2022-12-10T12:48:28;11.43;;;5.68;;
67063;SDS011;58476;48.072;11.970;2022-12-10T12:50:54;9.88;;;4.68;;
67063;SDS011;58476;48.072;11.970;2022-12-10T12:53:25;14.05;;;4.30;;
67063;SDS011;58476;48.072;11.970;2022-12-10T12:58:45;8.63;;;4.88;;
67063;SDS011;58476;48.072;11.970;2022-12-10T13:03:57;8.52;;;4.53;;
67063;SDS011;58476;48.072;11.970;2022-12-10T13:09:33;13.20;;;5.88;;
67063;SDS011;58476;48.072;11.970;2022-12-10T13:17:32;10.90;;;4.90;;
67063;SDS011;58476;48.072;11.970;2022-12-10T13:22:55;19.08;;;7.15;;
67063;SDS011;58476;48.072;11.970;2022-12-10T13:26:17;13.82;;;6.10;;
67063;SDS011;58476;48.072;11.970;2022-12-10T13:31:13;14.82;;;5.53;;
67063;SDS011;58476;48.072;11.970;2022-12-10T13:41:28;23.13;;;9.13;;
67063;SDS011;58476;48.072;11.970;2022-12-10T13:43:56;19.25;;;8.02;;
67063;SDS011;58476;48.072;11.970;2022-12-10T13:48:55;17.35;;;8.00;;
67063;SDS011;58476;48.072;11.970;2022-12-10T13:57:44;17.48;;;7.57;;
67063;SDS011;58476;48.072;11.970;2022-12-10T14:08:02;17.30;;;7.25;;
67063;SDS011;58476;48.072;11.970;2022-12-10T14:10:32;16.70;;;6.13;;
67063;SDS011;58476;48.072;11.970;2022-12-10T14:13:03;17.83;;;6.60;;
67063;SDS011;58476;48.072;11.970;2022-12-10T14:15:30;16.65;;;6.03;;
67063;SDS011;58476;48.072;11.970;2022-12-10T14:18:16;18.67;;;7.03;;
67063;SDS011;58476;48.072;11.970;2022-12-10T14:20:46;22.85;;;7.80;;
67063;SDS011;58476;48.072;11.970;2022-12-10T14:23:21;20.85;;;8.50;;
67063;SDS011;58476;48.072;11.970;2022-12-10T14:25:49;17.45;;;6.97;;
67063;SDS011;58476;48.072;11.970;2022-12-10T14:28:17;17.65;;;6.85;;
67063;SDS011;58476;48.072;11.970;2022-12-10T14:30:47;15.00;;;7.32;;
67063;SDS011;58476;48.072;11.970;2022-12-10T14:33:15;19.02;;;7.00;;
67063;SDS011;58476;48.072;11.970;2022-12-10T14:35:42;15.57;;;7.13;;
67063;SDS011;58476;48.072;11.970;2022-12-10T14:38:16;16.33;;;6.68;;
67063;SDS011;58476;48.072;11.970;2022-12-10T14:40:45;16.23;;;6.22;;
67063;SDS011;58476;48.072;11.970;2022-12-10T14:43:20;22.17;;;6.90;;
67063;SDS011;58476;48.072;11.970;2022-12-10T14:45:52;17.25;;;6.57;;
67063;SDS011;58476;48.072;11.970;2022-12-10T14:48:22;13.75;;;6.97;;
67063;SDS011;58476;48.072;11.970;2022-12-10T14:50:48;19.40;;;6.90;;
67063;SDS011;58476;48.072;11.970;2022-12-10T14:53:15;13.38;;;6.03;;
67063;SDS011;58476;48.072;11.970;2022-12-10T14:55:44;12.20;;;5.78;;
67063;SDS011;58476;48.072;11.970;2022-12-10T14:58:16;15.63;;;6.20;;
67063;SDS011;58476;48.072;11.970;2022-12-10T15:00:51;11.45;;;5.82;;
67063;SDS011;58476;48.072;11.970;2022-12-10T15:03:23;15.70;;;6.05;;
67063;SDS011;58476;48.072;11.970;2022-12-10T15:05:56;13.38;;;5.80;;
67063;SDS011;58476;48.072;11.970;2022-12-10T15:08:24;13.73;;;6.05;;
67063;SDS011;58476;48.072;11.970;2022-12-10T15:10:51;14.93;;;5.80;;
67063;SDS011;58476;48.072;11.970;2022-12-10T15:13:24;14.32;;;5.78;;
67063;SDS011;58476;48.072;11.970;2022-12-10T15:15:56;13.45;;;5.30;;
67063;SDS011;58476;48.072;11.970;2022-12-10T15:18:32;13.93;;;5.78;;
67063;SDS011;58476;48.072;11.970;2022-12-10T15:21:19;11.90;;;5.50;;
67063;SDS011;58476;48.072;11.970;2022-12-10T15:23:46;16.02;;;5.90;;
67063;SDS011;58476;48.072;11.970;2022-12-10T15:28:44;20.10;;;6.03;;
67063;SDS011;58476;48.072;11.970;2022-12-10T15:46:51;15.63;;;6.03;;
67063;SDS011;58476;48.072;11.970;2022-12-10T15:49:35;10.85;;;5.18;;
67063;SDS011;58476;48.072;11.970;2022-12-10T15:52:01;12.73;;;5.65;;
67063;SDS011;58476;48.072;11.970;2022-12-10T15:54:35;10.85;;;4.78;;
67063;SDS011;58476;48.072;11.970;2022-12-10T15:59:42;12.73;;;5.78;;
67063;SDS011;58476;48.072;11.970;2022-12-10T16:02:54;16.20;;;5.35;;
67063;SDS011;58476;48.072;11.970;2022-12-10T16:05:04;11.80;;;5.28;;
67063;SDS011;58476;48.072;11.970;2022-12-10T16:07:36;13.18;;;5.35;;
67063;SDS011;58476;48.072;11.970;2022-12-10T16:10:02;11.32;;;5.45;;
67063;SDS011;58476;48.072;11.970;2022-12-10T16:12:29;11.52;;;5.25;;
67063;SDS011;58476;48.072;11.970;2022-12-10T16:14:55;18.55;;;5.50;;
67063;SDS011;58476;48.072;11.970;2022-12-10T16:17:22;10.73;;;5.68;;
67063;SDS011;58476;48.072;11.970;2022-12-10T16:19:47;12.63;;;5.78;;
67063;SDS011;58476;48.072;11.970;2022-12-10T16:22:12;14.43;;;5.10;;
67063;SDS011;58476;48.072;11.970;2022-12-10T16:24:38;9.45;;;4.63;;
67063;SDS011;58476;48.072;11.970;2022-12-10T16:27:08;12.95;;;4.60;;
67063;SDS011;58476;48.072;11.970;2022-12-10T16:29:36;12.00;;;5.18;;
67063;SDS011;58476;48.072;11.970;2022-12-10T16:32:02;12.50;;;5.38;;
67063;SDS011;58476;48.072;11.970;2022-12-10T16:34:27;11.85;;;4.90;;
67063;SDS011;58476;48.072;11.970;2022-12-10T16:36:53;10.55;;;4.85;;
67063;SDS011;58476;48.072;11.970;2022-12-10T16:39:18;13.40;;;4.65;;
67063;SDS011;58476;48.072;11.970;2022-12-10T16:41:43;10.18;;;5.00;;
67063;SDS011;58476;48.072;11.970;2022-12-10T16:44:09;8.48;;;4.53;;
67063;SDS011;58476;48.072;11.970;2022-12-10T16:46:34;10.63;;;4.65;;
67063;SDS011;58476;48.072;11.970;2022-12-10T16:49:00;7.97;;;4.20;;
67063;SDS011;58476;48.072;11.970;2022-12-10T16:51:28;10.30;;;4.95;;
67063;SDS011;58476;48.072;11.970;2022-12-10T16:53:55;9.15;;;4.75;;
67063;SDS011;58476;48.072;11.970;2022-12-10T16:56:21;8.75;;;4.75;;
67063;SDS011;58476;48.072;11.970;2022-12-10T16:58:47;9.73;;;4.03;;
67063;SDS011;58476;48.072;11.970;2022-12-10T17:01:17;8.02;;;4.75;;
67063;SDS011;58476;48.072;11.970;2022-12-10T17:03:45;8.82;;;4.65;;
67063;SDS011;58476;48.072;11.970;2022-12-10T17:06:11;9.32;;;5.80;;
67063;SDS011;58476;48.072;11.970;2022-12-10T17:08:37;8.88;;;5.28;;